Orlando Sanford International Airport
KSFB : now visible

Airfield :











YOU CAN JOIN US ON...

 
LOGIN :

Register | Disclaimer

   EN    FR    IT 

 









Legend :    VFR   Marginal VFR   IFR   Intensive IFR   Very Intensive IFR
Visi :
Ceiling :
>= 8 km
>= 3000ft
5 to 8 km
1000 to 3000 ft
1500m to 5 km
500 to 1000 ft
800 to 1500m
200 to 500 ft
< 800m
< 200 ft
Symbols :   Thunderstorms  Fog  Heavy snow  Heavy precipitations  Wind > 20 kt






- Airport Elevation : 55 ft
- IATA code : SFB


KSFB - Orlando Sanford International

CURRENT METAR :
  • 241853Z 16008KT 10SM FEW050 32/19 A3004 RMK AO2 SLP170 T03220194

EXPIRED METARs :
  • 241753Z 11006KT 10SM FEW044 FEW060 32/20 A3006 RMK AO2 SLP177 T03170200 10317 20250 58009
  • 241653Z 10006KT 10SM FEW040 FEW060 31/21 A3007 RMK AO2 SLP182 T03060206

TAF KSFB
Valid from the 24 at 18:00 until the 25 at 18:00 UTC


241722Z 2418/2518 15008KT P6SM SCT040 SCT250
FM242100 12011KT P6SM SCT050 SCT250
FM250300 14006KT P6SM FEW050 SCT250
FM251400 14012KT P6SM SCT045 SCT250
KZJX FIR / North America



MET'MAP, your aeronautical weather chart ! - Copyright ORBIFLY December 2007 - Disclaimer

ORBIFLY MET'MAP TEAM :

Programming & Development : Alexandra Zaïnal
Original concept : Baudouin d'Aumeries
Technical & hardware support : Manuel Goepfert
Assistance : Marc-Olivier Méhu

Contact : metmap@orbifly.com




SOURCES & CREDITS :

   NOAA       Earth
Advisory